createdAt,value
2022-11-08T00:00:14.113Z,87.90
2022-11-08T00:02:41.282Z,87.80
2022-11-08T00:05:27.158Z,87.60
2022-11-08T00:08:12.642Z,87.70
2022-11-08T00:10:58.123Z,87.80
2022-11-08T00:13:43.515Z,87.80
2022-11-08T00:16:10.612Z,87.80
2022-11-08T00:18:37.554Z,87.80
2022-11-08T00:21:04.526Z,87.80
2022-11-08T00:23:31.518Z,87.80
2022-11-08T00:25:58.607Z,87.80
2022-11-08T00:28:25.584Z,87.90
2022-11-08T00:30:52.546Z,88.00
2022-11-08T00:33:19.510Z,88.10
2022-11-08T00:35:46.454Z,88.10
2022-11-08T00:38:13.926Z,88.20
2022-11-08T00:40:40.973Z,88.20
2022-11-08T00:43:07.923Z,88.20
2022-11-08T00:45:34.899Z,88.20
2022-11-08T00:48:01.838Z,88.20
2022-11-08T00:50:28.817Z,88.20
2022-11-08T00:52:55.744Z,88.20
2022-11-08T00:55:22.769Z,88.20
2022-11-08T00:58:04.675Z,88.20
2022-11-08T01:00:31.703Z,88.20
2022-11-08T01:03:17.411Z,88.20
2022-11-08T01:05:44.406Z,88.20
2022-11-08T01:08:12.759Z,88.20
2022-11-08T01:10:44.096Z,88.30
2022-11-08T01:13:11.873Z,88.40
2022-11-08T01:15:41.087Z,88.30
2022-11-08T01:18:09.793Z,88.30
2022-11-08T01:20:44.637Z,88.30
2022-11-08T01:23:12.605Z,88.30
2022-11-08T01:25:41.928Z,88.30
2022-11-08T01:28:09.576Z,88.50
2022-11-08T01:30:38.229Z,88.40
2022-11-08T01:33:05.734Z,88.50
2022-11-08T01:35:34.209Z,88.60
2022-11-08T01:38:01.647Z,88.60
2022-11-08T01:40:29.363Z,88.40
2022-11-08T01:42:56.403Z,88.40
2022-11-08T01:46:01.048Z,88.30
2022-11-08T01:48:29.193Z,88.50
2022-11-08T01:50:59.583Z,88.40
2022-11-08T01:53:28.434Z,88.50
2022-11-08T01:55:56.434Z,88.60
2022-11-08T01:58:27.721Z,88.60
2022-11-08T02:00:54.724Z,88.50
2022-11-08T02:03:22.989Z,88.60
2022-11-08T02:05:49.998Z,88.60
2022-11-08T02:08:29.013Z,89.20
2022-11-08T02:10:56.194Z,88.70
2022-11-08T02:13:26.686Z,88.70
2022-11-08T02:15:53.640Z,88.80
2022-11-08T02:18:22.952Z,88.80
2022-11-08T02:20:49.871Z,88.80
2022-11-08T02:23:29.863Z,88.80
2022-11-08T02:25:56.963Z,88.60
2022-11-08T02:28:23.984Z,88.50
2022-11-08T02:30:50.926Z,88.50
2022-11-08T02:33:21.058Z,88.50
2022-11-08T02:35:51.784Z,88.60
2022-11-08T02:38:19.640Z,88.80
2022-11-08T02:40:55.210Z,89.00
2022-11-08T02:43:23.324Z,89.10
2022-11-08T02:45:51.130Z,89.10
2022-11-08T02:48:19.723Z,89.20
2022-11-08T02:50:47.395Z,89.30
2022-11-08T02:53:14.363Z,89.40
2022-11-08T02:55:41.696Z,89.50
2022-11-08T02:58:09.173Z,89.50
2022-11-08T03:00:36.129Z,89.50
2022-11-08T03:03:03.479Z,90.10
2022-11-08T03:05:31.020Z,89.80
2022-11-08T03:07:58.437Z,89.90
2022-11-08T03:10:27.138Z,89.90
2022-11-08T03:13:02.857Z,89.80
2022-11-08T03:15:30.295Z,89.60
2022-11-08T03:17:58.527Z,89.50
2022-11-08T03:20:31.133Z,89.30
2022-11-08T03:23:01.414Z,89.30
2022-11-08T03:25:28.750Z,89.30
2022-11-08T03:27:55.753Z,89.30
2022-11-08T03:30:22.765Z,89.20
2022-11-08T03:32:52.614Z,89.10
2022-11-08T03:35:20.401Z,89.10
2022-11-08T03:37:53.739Z,89.10
2022-11-08T03:40:21.443Z,89.10
2022-11-08T03:42:48.862Z,89.10
2022-11-08T03:45:16.342Z,89.40
2022-11-08T03:47:45.014Z,89.30
2022-11-08T03:50:13.692Z,89.30
2022-11-08T03:52:45.457Z,89.40
2022-11-08T03:55:13.269Z,89.40
2022-11-08T03:57:41.213Z,89.30
2022-11-08T04:00:10.118Z,89.20
2022-11-08T04:02:40.119Z,89.20
2022-11-08T04:05:09.223Z,89.30
2022-11-08T04:07:36.669Z,89.30
2022-11-08T04:10:09.105Z,89.30
2022-11-08T04:12:58.440Z,89.40
2022-11-08T04:15:25.852Z,89.40
2022-11-08T04:18:12.844Z,89.40
2022-11-08T04:21:00.185Z,89.40
2022-11-08T04:23:28.107Z,89.40
2022-11-08T04:25:57.430Z,89.40
2022-11-08T04:28:29.823Z,89.30
2022-11-08T04:30:59.393Z,89.30
2022-11-08T04:33:26.984Z,89.40
2022-11-08T04:35:54.223Z,89.40
2022-11-08T04:38:21.743Z,89.50
2022-11-08T04:40:49.168Z,89.50
2022-11-08T04:43:16.167Z,89.40
2022-11-08T04:45:43.112Z,89.40
2022-11-08T04:48:10.184Z,89.40
2022-11-08T04:50:37.150Z,89.50
2022-11-08T04:53:04.515Z,89.50
2022-11-08T04:55:31.553Z,89.40
2022-11-08T04:57:59.218Z,89.50
2022-11-08T05:00:26.707Z,89.40
2022-11-08T05:02:54.268Z,89.60
2022-11-08T05:05:21.655Z,89.70
2022-11-08T05:07:48.720Z,89.80
2022-11-08T05:10:15.722Z,89.80
2022-11-08T05:12:42.741Z,89.80
2022-11-08T05:15:10.120Z,89.80
2022-11-08T05:17:37.182Z,89.80
2022-11-08T05:20:23.953Z,89.80
2022-11-08T05:23:09.289Z,89.80
2022-11-08T05:25:40.271Z,90.10
2022-11-08T05:28:07.254Z,89.80
2022-11-08T05:30:34.239Z,89.80
2022-11-08T05:33:01.218Z,89.90
2022-11-08T05:35:28.272Z,90.00
2022-11-08T05:37:55.235Z,90.00
2022-11-08T05:40:22.187Z,90.00
2022-11-08T05:42:49.192Z,90.00
2022-11-08T05:45:16.283Z,90.00
2022-11-08T05:47:46.752Z,90.00
2022-11-08T05:50:19.100Z,90.00
2022-11-08T05:52:46.457Z,90.00
2022-11-08T05:55:13.543Z,90.00
2022-11-08T05:57:43.866Z,90.00
2022-11-08T06:00:12.505Z,90.00
2022-11-08T06:02:40.073Z,90.00
2022-11-08T06:05:08.690Z,89.90
2022-11-08T06:07:36.938Z,89.80
2022-11-08T06:10:04.785Z,89.70
2022-11-08T06:12:31.895Z,89.70
2022-11-08T06:14:58.910Z,89.80
2022-11-08T06:17:26.288Z,89.90
2022-11-08T06:19:56.281Z,90.00
2022-11-08T06:22:23.305Z,90.00
2022-11-08T06:24:50.305Z,90.00
2022-11-08T06:27:17.377Z,90.00
2022-11-08T06:29:44.400Z,90.00
2022-11-08T06:32:11.583Z,90.00
2022-11-08T06:34:38.571Z,90.00
2022-11-08T06:37:05.695Z,90.00
2022-11-08T06:39:32.976Z,90.00
2022-11-08T06:42:01.008Z,89.90
2022-11-08T06:44:27.996Z,89.90
2022-11-08T06:46:57.691Z,90.20
2022-11-08T06:49:24.748Z,90.00
2022-11-08T06:51:52.753Z,89.80
2022-11-08T06:54:23.199Z,89.80
2022-11-08T06:56:55.795Z,89.90
2022-11-08T06:59:23.349Z,88.80
2022-11-08T07:01:50.555Z,87.70
2022-11-08T07:04:17.665Z,86.40
2022-11-08T07:06:45.098Z,85.20
2022-11-08T07:09:12.117Z,83.80
2022-11-08T07:11:39.077Z,82.80
2022-11-08T07:14:06.038Z,82.30
2022-11-08T07:16:33.046Z,82.50
2022-11-08T07:19:00.113Z,83.30
2022-11-08T07:21:27.102Z,83.60
2022-11-08T07:23:54.108Z,83.40
2022-11-08T07:26:21.103Z,83.10
2022-11-08T07:28:48.089Z,82.90
2022-11-08T07:31:16.578Z,82.50
2022-11-08T07:33:43.588Z,82.30
2022-11-08T07:36:10.581Z,82.10
2022-11-08T07:38:37.565Z,82.10
2022-11-08T07:41:04.573Z,82.10
2022-11-08T07:43:31.664Z,82.30
2022-11-08T07:46:09.249Z,82.30
2022-11-08T07:48:36.244Z,82.40
2022-11-08T07:51:03.383Z,82.40
2022-11-08T07:53:30.664Z,82.40
2022-11-08T07:55:58.378Z,82.40
2022-11-08T07:58:25.908Z,82.30
2022-11-08T08:00:52.925Z,82.20
2022-11-08T08:03:20.302Z,81.80
2022-11-08T08:05:57.927Z,81.90
2022-11-08T08:08:27.747Z,81.10
2022-11-08T08:11:00.397Z,81.00
2022-11-08T08:13:28.108Z,80.80
2022-11-08T08:15:59.117Z,80.60
2022-11-08T08:18:26.181Z,80.40
2022-11-08T08:20:53.104Z,80.30
2022-11-08T08:23:20.261Z,80.00
2022-11-08T08:25:47.386Z,79.40
2022-11-08T08:28:14.348Z,79.20
2022-11-08T08:30:41.389Z,79.10
2022-11-08T08:33:29.813Z,79.20
2022-11-08T08:35:57.300Z,79.20
2022-11-08T08:38:24.224Z,79.10
2022-11-08T08:40:51.848Z,78.80
2022-11-08T08:43:19.644Z,78.10
2022-11-08T08:45:47.009Z,78.00
2022-11-08T08:48:13.939Z,77.80
2022-11-08T08:50:41.517Z,77.60
2022-11-08T08:53:08.486Z,77.40
2022-11-08T08:55:35.574Z,76.70
2022-11-08T08:58:02.688Z,76.70
2022-11-08T09:03:16.848Z,76.70
2022-11-08T09:05:46.777Z,76.70
2022-11-08T09:08:14.778Z,76.50
2022-11-08T09:10:41.936Z,76.50
2022-11-08T09:13:09.197Z,76.40
2022-11-08T09:15:36.398Z,76.10
2022-11-08T09:18:03.833Z,75.90
2022-11-08T09:20:30.889Z,76.00
2022-11-08T09:23:02.711Z,76.00
2022-11-08T09:25:29.877Z,75.80
2022-11-08T09:27:56.888Z,75.70
2022-11-08T09:30:23.923Z,75.90
2022-11-08T09:33:01.962Z,76.00
2022-11-08T09:35:30.240Z,76.10
2022-11-08T09:37:58.106Z,76.20
2022-11-08T09:40:46.914Z,76.10
2022-11-08T09:43:22.854Z,75.90
2022-11-08T09:45:52.998Z,75.60
2022-11-08T09:48:28.826Z,75.30
2022-11-08T09:50:59.127Z,75.20
2022-11-08T09:53:59.256Z,74.90
2022-11-08T09:56:32.008Z,74.60
2022-11-08T09:59:19.129Z,74.40
2022-11-08T10:01:46.251Z,73.80
2022-11-08T10:04:17.071Z,73.20
2022-11-08T10:07:02.240Z,72.60
2022-11-08T10:10:04.228Z,72.00
2022-11-08T10:12:50.002Z,71.50
2022-11-08T10:15:33.744Z,71.20
2022-11-08T10:18:03.412Z,71.10
2022-11-08T10:20:53.442Z,70.80
2022-11-08T10:23:36.883Z,70.10
2022-11-08T10:26:12.097Z,69.50
2022-11-08T10:28:44.917Z,68.50
2022-11-08T10:31:13.603Z,68.40
2022-11-08T10:33:59.024Z,67.60
2022-11-08T10:36:38.274Z,66.80
2022-11-08T10:39:21.289Z,66.60
2022-11-08T10:42:00.202Z,66.80
2022-11-08T10:44:28.950Z,66.90
2022-11-08T10:47:01.925Z,66.50
2022-11-08T10:49:40.683Z,67.10
2022-11-08T10:52:32.440Z,67.60
2022-11-08T10:55:01.324Z,67.80
2022-11-08T10:57:28.252Z,68.00
2022-11-08T10:59:56.710Z,67.90
2022-11-08T11:02:26.006Z,67.30
2022-11-08T11:04:54.259Z,67.60
2022-11-08T11:07:44.048Z,67.50
2022-11-08T11:10:22.576Z,67.30
2022-11-08T11:12:51.756Z,67.10
2022-11-08T11:15:19.004Z,66.90
2022-11-08T11:17:46.842Z,67.00
2022-11-08T11:20:23.076Z,66.60
2022-11-08T11:22:52.144Z,66.10
2022-11-08T11:25:23.805Z,65.90
2022-11-08T11:28:14.012Z,65.30
2022-11-08T11:30:42.185Z,65.00
2022-11-08T11:33:09.118Z,64.70
2022-11-08T11:35:49.606Z,64.60
2022-11-08T11:39:08.606Z,64.30
2022-11-08T11:42:30.968Z,64.10
2022-11-08T11:45:16.864Z,63.80
2022-11-08T11:47:55.243Z,63.50
2022-11-08T11:50:40.155Z,63.10
2022-11-08T11:53:24.672Z,63.50
2022-11-08T11:56:10.193Z,64.10
2022-11-08T11:59:08.686Z,63.20
2022-11-08T12:01:47.478Z,62.30
2022-11-08T12:04:26.363Z,62.10
2022-11-08T12:07:15.651Z,61.80
2022-11-08T12:09:56.485Z,61.60
2022-11-08T12:12:52.660Z,61.60
2022-11-08T12:15:25.593Z,61.40
2022-11-08T12:17:52.525Z,60.30
2022-11-08T12:20:26.959Z,60.20
2022-11-08T12:23:15.469Z,60.30
2022-11-08T12:25:45.395Z,60.20
2022-11-08T12:28:42.713Z,59.60
2022-11-08T12:31:28.440Z,59.40
2022-11-08T12:34:10.570Z,59.20
2022-11-08T12:36:53.069Z,59.70
2022-11-08T12:39:28.857Z,60.20
2022-11-08T12:42:11.072Z,60.60
2022-11-08T12:45:19.133Z,60.80
2022-11-08T12:47:57.011Z,60.60
2022-11-08T12:50:35.673Z,60.00
2022-11-08T12:53:02.615Z,59.80
2022-11-08T12:55:35.798Z,59.90
2022-11-08T12:58:21.280Z,60.30
2022-11-08T13:00:52.390Z,61.40
2022-11-08T13:04:06.404Z,61.00
2022-11-08T13:06:48.613Z,61.00
2022-11-08T13:09:46.643Z,60.90
2022-11-08T13:12:44.337Z,60.80
2022-11-08T13:15:17.231Z,61.30
2022-11-08T13:18:07.187Z,60.70
2022-11-08T13:20:46.161Z,60.60
2022-11-08T13:23:24.576Z,60.80
2022-11-08T13:25:52.534Z,61.00
2022-11-08T13:28:38.123Z,61.30
2022-11-08T13:31:41.044Z,61.20
2022-11-08T13:34:14.439Z,61.20
2022-11-08T13:37:02.015Z,61.30
2022-11-08T13:39:52.267Z,61.20
2022-11-08T13:42:19.177Z,61.40
2022-11-08T13:44:55.257Z,61.80
2022-11-08T13:47:34.531Z,62.00
2022-11-08T13:50:29.388Z,62.10
2022-11-08T13:53:23.493Z,62.30
2022-11-08T13:55:59.303Z,62.00
2022-11-08T13:58:42.512Z,61.90
2022-11-08T14:01:18.463Z,62.30
2022-11-08T14:03:48.267Z,62.30
2022-11-08T14:06:41.842Z,62.10
2022-11-08T14:09:35.649Z,62.10
2022-11-08T14:12:09.373Z,62.00
2022-11-08T14:14:42.510Z,62.00
2022-11-08T14:17:19.674Z,62.20
2022-11-08T14:19:47.985Z,62.30
2022-11-08T14:22:24.745Z,62.50
2022-11-08T14:24:53.622Z,62.80
2022-11-08T14:27:38.301Z,62.80
2022-11-08T14:30:14.116Z,62.60
2022-11-08T14:32:41.108Z,62.70
2022-11-08T14:35:16.641Z,62.90
2022-11-08T14:37:44.214Z,63.00
2022-11-08T14:40:22.990Z,63.10
2022-11-08T14:42:51.169Z,63.60
2022-11-08T14:45:24.643Z,64.00
2022-11-08T14:48:00.217Z,64.30
2022-11-08T14:50:31.503Z,64.30
2022-11-08T14:53:21.577Z,64.40
2022-11-08T14:56:01.301Z,64.40
2022-11-08T14:58:29.529Z,64.50
2022-11-08T15:00:57.858Z,64.50
2022-11-08T15:03:29.995Z,64.70
2022-11-08T15:06:00.216Z,64.80
2022-11-08T15:08:33.312Z,65.00
2022-11-08T15:11:12.602Z,65.20
2022-11-08T15:13:55.429Z,65.30
2022-11-08T15:16:22.759Z,65.70
2022-11-08T15:18:50.366Z,66.10
2022-11-08T15:21:29.627Z,66.60
2022-11-08T15:24:14.976Z,67.10
2022-11-08T15:27:01.778Z,67.60
2022-11-08T15:29:28.797Z,68.00
2022-11-08T15:32:01.448Z,68.20
2022-11-08T15:34:39.803Z,68.60
2022-11-08T15:37:28.582Z,68.80
2022-11-08T15:39:56.422Z,69.10
2022-11-08T15:42:23.602Z,69.10
2022-11-08T15:45:00.387Z,69.30
2022-11-08T15:47:39.670Z,69.70
2022-11-08T15:50:20.188Z,69.90
2022-11-08T15:52:49.643Z,70.10
2022-11-08T15:55:21.615Z,70.30
2022-11-08T15:57:49.554Z,70.50
2022-11-08T16:00:22.721Z,70.70
2022-11-08T16:02:50.194Z,71.10
2022-11-08T16:05:25.624Z,71.30
2022-11-08T16:07:53.583Z,71.60
2022-11-08T16:10:30.807Z,71.90
2022-11-08T16:13:01.541Z,72.10
2022-11-08T16:15:32.209Z,72.20
2022-11-08T16:18:00.292Z,72.50
2022-11-08T16:20:27.898Z,72.80
2022-11-08T16:22:56.752Z,73.00
2022-11-08T16:25:24.966Z,73.30
2022-11-08T16:28:03.619Z,73.60
2022-11-08T16:30:33.679Z,74.00
2022-11-08T16:33:01.220Z,74.20
2022-11-08T16:35:28.187Z,74.40
2022-11-08T16:37:55.136Z,74.60
2022-11-08T16:40:24.551Z,74.70
2022-11-08T16:42:53.188Z,74.80
2022-11-08T16:45:43.501Z,74.90
2022-11-08T16:48:18.586Z,75.70
2022-11-08T16:50:46.101Z,75.40
2022-11-08T16:53:21.385Z,75.50
2022-11-08T16:55:48.405Z,75.80
2022-11-08T16:58:15.612Z,76.00
2022-11-08T17:00:44.305Z,76.10
2022-11-08T17:03:18.807Z,76.50
2022-11-08T17:05:45.830Z,76.70
2022-11-08T17:08:12.809Z,76.70
2022-11-08T17:10:40.131Z,76.90
2022-11-08T17:13:07.290Z,76.90
2022-11-08T17:15:34.255Z,77.00
2022-11-08T17:18:03.112Z,77.10
2022-11-08T17:20:30.149Z,77.40
2022-11-08T17:22:57.126Z,77.60
2022-11-08T17:25:24.915Z,77.80
2022-11-08T17:27:52.496Z,77.90
2022-11-08T17:30:25.435Z,78.10
2022-11-08T17:32:54.128Z,78.00
2022-11-08T17:35:21.408Z,78.00
2022-11-08T17:37:48.360Z,78.20
2022-11-08T17:40:15.396Z,78.30
2022-11-08T17:42:42.379Z,78.50
2022-11-08T17:45:10.783Z,78.80
2022-11-08T17:47:38.180Z,79.10
2022-11-08T17:50:06.504Z,79.60
2022-11-08T17:52:33.768Z,80.10
2022-11-08T17:55:00.774Z,80.50
2022-11-08T17:57:28.405Z,80.70
2022-11-08T17:59:55.463Z,80.80
2022-11-08T18:02:22.567Z,81.00
2022-11-08T18:04:49.525Z,80.90
2022-11-08T18:07:16.657Z,80.90
2022-11-08T18:09:43.690Z,81.10
2022-11-08T18:12:10.676Z,81.40
2022-11-08T18:14:37.644Z,81.50
2022-11-08T18:17:05.130Z,81.50
2022-11-08T18:19:32.278Z,81.70
2022-11-08T18:22:00.460Z,81.80
2022-11-08T18:24:27.437Z,82.00
2022-11-08T18:26:54.403Z,82.00
2022-11-08T18:29:21.725Z,81.80
2022-11-08T18:31:48.725Z,81.50
2022-11-08T18:34:15.751Z,81.30
2022-11-08T18:36:42.736Z,81.30
2022-11-08T18:39:09.686Z,81.40
2022-11-08T18:41:36.783Z,81.50
2022-11-08T18:44:05.983Z,81.50
2022-11-08T18:46:36.548Z,81.60
2022-11-08T18:49:05.959Z,81.50
2022-11-08T18:51:33.064Z,81.60
2022-11-08T18:54:00.206Z,81.70
2022-11-08T18:56:27.214Z,81.80
2022-11-08T18:58:54.429Z,82.00
2022-11-08T19:01:21.545Z,82.10
2022-11-08T19:03:48.751Z,82.30
2022-11-08T19:06:15.743Z,82.50
2022-11-08T19:08:42.823Z,82.80
2022-11-08T19:11:11.960Z,83.20
2022-11-08T19:13:40.544Z,83.60
2022-11-08T19:16:14.427Z,83.70
2022-11-08T19:18:42.446Z,83.80
2022-11-08T19:21:24.305Z,83.70
2022-11-08T19:23:51.909Z,83.90
2022-11-08T19:26:21.856Z,84.00
2022-11-08T19:28:49.801Z,84.20
2022-11-08T19:31:19.390Z,84.20
2022-11-08T19:33:47.777Z,84.30
2022-11-08T19:36:18.055Z,84.40
2022-11-08T19:38:45.566Z,84.50
2022-11-08T19:41:18.558Z,84.60
2022-11-08T19:43:46.712Z,84.40
2022-11-08T19:46:22.426Z,84.30
2022-11-08T19:48:51.272Z,84.20
2022-11-08T19:51:21.461Z,84.10
2022-11-08T19:53:48.971Z,84.20
2022-11-08T19:56:18.391Z,84.20
2022-11-08T19:58:46.125Z,84.50
2022-11-08T20:01:21.327Z,84.50
2022-11-08T20:03:48.816Z,84.70
2022-11-08T20:06:19.751Z,84.70
2022-11-08T20:08:52.638Z,84.70
2022-11-08T20:11:27.764Z,84.70
2022-11-08T20:13:55.128Z,84.50
2022-11-08T20:16:27.831Z,84.30
2022-11-08T20:18:57.495Z,84.30
2022-11-08T20:21:33.378Z,84.30
2022-11-08T20:24:00.907Z,84.30
2022-11-08T20:26:28.091Z,84.40
2022-11-08T20:28:57.048Z,84.70
2022-11-08T20:31:25.433Z,84.80
2022-11-08T20:33:53.863Z,85.10
2022-11-08T20:36:23.643Z,85.20
2022-11-08T20:38:54.764Z,85.40
2022-11-08T20:41:21.832Z,85.60
2022-11-08T20:43:48.817Z,85.80
2022-11-08T20:46:18.081Z,85.90
2022-11-08T20:48:50.626Z,86.00
2022-11-08T20:51:19.362Z,86.00
2022-11-08T20:53:46.749Z,86.10
2022-11-08T20:56:17.586Z,86.10
2022-11-08T20:58:45.887Z,86.20
2022-11-08T21:01:16.125Z,86.20
2022-11-08T21:03:44.856Z,86.30
2022-11-08T21:06:14.424Z,86.30
2022-11-08T21:11:30.310Z,86.40
2022-11-08T21:13:58.021Z,86.20
2022-11-08T21:16:47.064Z,87.00
2022-11-08T21:19:11.991Z,86.40
2022-11-08T21:21:38.928Z,86.60
2022-11-08T21:24:06.224Z,86.70
2022-11-08T21:26:36.468Z,87.60
2022-11-08T21:29:04.591Z,87.10
2022-11-08T21:31:32.094Z,87.30
2022-11-08T21:34:00.076Z,87.30
2022-11-08T21:36:29.054Z,87.40
2022-11-08T21:38:56.181Z,87.40
2022-11-08T21:41:23.247Z,87.50
2022-11-08T21:43:50.214Z,87.50
2022-11-08T21:46:20.349Z,87.60
2022-11-08T21:48:52.391Z,87.60
2022-11-08T21:51:19.418Z,87.50
2022-11-08T21:53:54.052Z,87.60
2022-11-08T21:56:27.828Z,87.50
2022-11-08T21:58:54.857Z,87.50
2022-11-08T22:01:26.988Z,87.50
2022-11-08T22:03:56.910Z,87.60
2022-11-08T22:06:24.184Z,87.60
2022-11-08T22:08:51.462Z,87.60
2022-11-08T22:11:18.749Z,87.60
2022-11-08T22:13:45.780Z,87.80
2022-11-08T22:16:12.823Z,87.80
2022-11-08T22:21:38.947Z,87.60
2022-11-08T22:24:14.398Z,87.50
2022-11-08T22:26:42.030Z,87.40
2022-11-08T22:29:09.594Z,87.40
2022-11-08T22:31:37.056Z,87.30
2022-11-08T22:34:05.213Z,87.10
2022-11-08T22:36:32.592Z,86.50
2022-11-08T22:38:59.660Z,87.00
2022-11-08T22:41:27.021Z,87.60
2022-11-08T22:43:54.001Z,88.10
2022-11-08T22:46:21.051Z,88.20
2022-11-08T22:48:47.990Z,88.30
2022-11-08T22:51:15.491Z,88.30
2022-11-08T22:53:42.995Z,88.30
2022-11-08T22:56:11.644Z,88.40
2022-11-08T22:58:39.108Z,88.60
2022-11-08T23:01:07.250Z,88.70
2022-11-08T23:03:34.208Z,88.80
2022-11-08T23:06:01.205Z,88.80
2022-11-08T23:08:29.110Z,88.90
2022-11-08T23:11:17.120Z,88.90
2022-11-08T23:14:02.905Z,88.90
2022-11-08T23:16:34.962Z,88.90
2022-11-08T23:19:24.775Z,88.90
2022-11-08T23:22:11.199Z,88.90
2022-11-08T23:24:38.613Z,88.90
2022-11-08T23:27:24.504Z,88.90
2022-11-08T23:30:10.408Z,88.90
2022-11-08T23:32:43.661Z,88.90
2022-11-08T23:35:12.189Z,89.00
2022-11-08T23:37:39.339Z,89.10
2022-11-08T23:40:26.676Z,89.30
2022-11-08T23:43:41.648Z,89.30
2022-11-08T23:46:12.762Z,89.30
2022-11-08T23:48:40.690Z,89.20
2022-11-08T23:51:08.025Z,89.30
2022-11-08T23:53:37.116Z,89.50
2022-11-08T23:56:05.157Z,89.50
2022-11-08T23:58:32.550Z,89.50
